Time;durP1;ratioP1;P1;durP2;ratioP2;P2;SDS_P1;SDS_P2;PMS_P1;PMS_P2;Temp;Humidity;BMP_temperature;BMP_pressure;BME280_temperature;BME280_humidity;BME280_pressure;Samples;Min_cycle;Max_cycle;Signal;HPM_P1;HPM_P2
2021/05/16 00:01:50;;;;;;;1.52;1.23;;;12.20;78.50;;;;;;3571968;40;20028;-67
2021/05/16 00:04:16;;;;;;;1.65;1.25;;;12.10;78.60;;;;;;3571248;40;20024;-66
2021/05/16 00:06:42;;;;;;;2.45;1.10;;;12.00;78.50;;;;;;3572487;40;20044;-66
2021/05/16 00:09:07;;;;;;;2.05;1.30;;;12.00;78.70;;;;;;3574694;40;20040;-66
2021/05/16 00:11:33;;;;;;;1.88;1.30;;;11.90;78.60;;;;;;3574334;40;20044;-67
2021/05/16 00:13:59;;;;;;;1.48;1.30;;;11.90;78.90;;;;;;3570978;40;20088;-67
2021/05/16 00:16:24;;;;;;;1.90;1.20;;;11.90;79.20;;;;;;3568629;40;20065;-67
2021/05/16 00:18:50;;;;;;;1.35;1.25;;;11.90;79.70;;;;;;3571823;40;20048;-67
2021/05/16 00:21:16;;;;;;;1.85;1.38;;;11.80;79.70;;;;;;3572675;40;20036;-67
2021/05/16 00:23:41;;;;;;;2.97;1.40;;;11.80;79.70;;;;;;3575632;40;20021;-67
2021/05/16 00:26:08;;;;;;;1.58;1.33;;;11.80;79.40;;;;;;3571466;40;20696;-67
2021/05/16 00:28:34;;;;;;;1.52;1.17;;;11.70;79.40;;;;;;3569213;40;20767;-66
2021/05/16 00:31:00;;;;;;;1.38;1.20;;;11.80;79.70;;;;;;3570298;40;20377;-67
2021/05/16 00:33:25;;;;;;;3.33;1.20;;;11.70;80.60;;;;;;3573305;40;20040;-66
2021/05/16 00:35:51;;;;;;;5.25;1.67;;;11.70;80.30;;;;;;3574654;40;20411;-66
2021/05/16 00:38:17;;;;;;;1.65;1.20;;;11.60;80.40;;;;;;3569903;40;20048;-66
2021/05/16 00:40:43;;;;;;;2.25;1.27;;;11.60;80.80;;;;;;3572372;40;20414;-67
2021/05/16 00:43:09;;;;;;;1.35;1.25;;;11.60;80.80;;;;;;3569890;40;20041;-67
2021/05/16 00:45:35;;;;;;;2.97;1.35;;;11.60;80.80;;;;;;3571263;40;20052;-66
2021/05/16 00:48:03;;;;;;;1.33;1.23;;;11.60;80.80;;;;;;3574487;40;20049;-62
2021/05/16 00:50:39;;;;;;;1.92;1.27;;;11.50;80.40;;;;;;3574695;40;20154;-62
2021/05/16 00:53:05;;;;;;;3.35;1.38;;;11.50;80.20;;;;;;3568242;40;20189;-62
2021/05/16 00:55:30;;;;;;;1.60;1.30;;;11.50;80.60;;;;;;3570862;40;20037;-63
2021/05/16 00:57:56;;;;;;;2.67;1.45;;;11.50;80.40;;;;;;3573347;40;20133;-62
2021/05/16 01:00:30;;;;;;;1.80;1.38;;;11.50;80.60;;;;;;3575084;40;20029;-62
2021/05/16 01:03:04;;;;;;;1.65;1.30;;;11.50;81.00;;;;;;3577237;40;20042;-62
2021/05/16 01:05:31;;;;;;;2.22;1.60;;;11.40;81.30;;;;;;3579198;40;20043;-63
2021/05/16 01:07:57;;;;;;;2.22;1.30;;;11.40;82.00;;;;;;3579135;40;20307;-62
2021/05/16 01:10:23;;;;;;;1.75;1.17;;;11.40;81.90;;;;;;3575959;40;20041;-62
2021/05/16 01:12:52;;;;;;;1.90;1.50;;;11.40;82.10;;;;;;3575073;40;20024;-63
2021/05/16 01:15:23;;;;;;;1.50;1.35;;;11.40;82.00;;;;;;3572164;40;20407;-62
2021/05/16 01:17:48;;;;;;;1.55;1.27;;;11.30;81.90;;;;;;3570494;40;20045;-62
2021/05/16 01:20:22;;;;;;;1.83;1.40;;;11.30;82.30;;;;;;3571176;40;20688;-62
2021/05/16 01:22:54;;;;;;;1.52;1.30;;;11.40;82.70;;;;;;3575143;40;20040;-61
2021/05/16 01:25:21;;;;;;;1.38;0.90;;;11.30;82.60;;;;;;3575339;40;20125;-62
2021/05/16 01:27:47;;;;;;;1.25;1.10;;;11.30;82.70;;;;;;3572097;40;20095;-62
2021/05/16 01:30:14;;;;;;;1.70;1.48;;;11.30;82.40;;;;;;3571266;40;20044;-62
2021/05/16 01:32:40;;;;;;;1.67;1.45;;;11.30;82.30;;;;;;3571423;40;20036;-63
2021/05/16 01:35:07;;;;;;;2.22;1.65;;;11.20;82.00;;;;;;3573386;40;20036;-63
2021/05/16 01:37:34;;;;;;;1.52;1.17;;;11.20;82.00;;;;;;3573577;40;20152;-62
2021/05/16 01:40:01;;;;;;;2.28;1.30;;;11.20;82.00;;;;;;3573417;40;20319;-62
2021/05/16 01:42:27;;;;;;;1.50;1.40;;;11.10;81.70;;;;;;3571971;40;20092;-66
2021/05/16 01:44:54;;;;;;;1.77;1.27;;;11.10;82.00;;;;;;3573158;40;20029;-62
2021/05/16 01:47:21;;;;;;;1.20;1.10;;;11.10;82.50;;;;;;3571675;40;20635;-62
2021/05/16 01:49:55;;;;;;;1.77;1.20;;;11.10;83.00;;;;;;3573897;40;20037;-62
2021/05/16 01:52:29;;;;;;;1.00;0.93;;;11.00;83.50;;;;;;3575188;40;20118;-62
2021/05/16 01:54:54;;;;;;;3.40;1.38;;;11.00;83.40;;;;;;3578781;40;20095;-62
2021/05/16 01:57:21;;;;;;;3.58;1.35;;;11.00;83.50;;;;;;3579737;40;20025;-62
2021/05/16 01:59:47;;;;;;;1.67;1.30;;;10.90;83.00;;;;;;3578132;40;20049;-63
2021/05/16 02:02:14;;;;;;;2.10;1.48;;;10.90;82.30;;;;;;3575943;40;20033;-62
2021/05/16 02:04:40;;;;;;;2.25;1.60;;;10.80;81.50;;;;;;3573857;40;20703;-62
2021/05/16 02:07:06;;;;;;;2.63;1.08;;;10.80;82.00;;;;;;3578756;40;20331;-62
2021/05/16 02:09:40;;;;;;;1.50;1.20;;;10.70;82.30;;;;;;3578165;40;20035;-63
2021/05/16 02:12:07;;;;;;;3.67;1.25;;;10.60;82.80;;;;;;3573736;40;20377;-62
2021/05/16 02:14:33;;;;;;;1.58;1.23;;;10.60;83.80;;;;;;3573014;40;20025;-62
2021/05/16 02:17:02;;;;;;;1.55;1.40;;;10.60;84.00;;;;;;3576023;40;20033;-63
2021/05/16 02:19:28;;;;;;;1.25;1.10;;;10.60;84.60;;;;;;3572423;40;20041;-62
2021/05/16 02:21:54;;;;;;;2.78;1.27;;;10.60;84.80;;;;;;3571118;40;20032;-62
2021/05/16 02:24:21;;;;;;;1.40;1.30;;;10.60;84.90;;;;;;3577485;40;20730;-62
2021/05/16 02:27:01;;;;;;;1.88;1.20;;;10.60;84.80;;;;;;3574702;40;20033;-62
2021/05/16 02:29:32;;;;;;;2.00;1.08;;;10.60;84.90;;;;;;3575960;40;20037;-63
2021/05/16 02:31:58;;;;;;;2.58;1.60;;;10.60;84.90;;;;;;3576839;40;20059;-62
2021/05/16 02:34:25;;;;;;;1.67;1.23;;;10.60;84.90;;;;;;3569108;40;20040;-62
2021/05/16 02:36:53;;;;;;;1.98;1.23;;;10.60;84.80;;;;;;3571128;40;20047;-62
2021/05/16 02:39:19;;;;;;;1.13;1.02;;;10.60;84.90;;;;;;3573118;40;20051;-62
2021/05/16 02:41:45;;;;;;;1.50;1.40;;;10.60;85.00;;;;;;3574301;40;20045;-63
2021/05/16 02:44:12;;;;;;;1.80;1.40;;;10.60;85.20;;;;;;3572182;40;20084;-62
2021/05/16 02:46:38;;;;;;;2.55;1.45;;;10.60;85.50;;;;;;3578610;40;20122;-63
2021/05/16 02:49:04;;;;;;;2.05;1.67;;;10.60;85.50;;;;;;3578414;40;20706;-62
2021/05/16 02:51:30;;;;;;;1.58;1.40;;;10.60;85.50;;;;;;3574883;40;20041;-62
2021/05/16 02:53:56;;;;;;;1.55;1.45;;;10.70;85.60;;;;;;3574662;40;20053;-62
2021/05/16 02:56:22;;;;;;;2.95;1.45;;;10.70;85.50;;;;;;3577430;40;20534;-63
2021/05/16 02:58:49;;;;;;;1.67;1.58;;;10.70;85.40;;;;;;3575331;40;20123;-62
2021/05/16 03:01:15;;;;;;;4.10;1.60;;;10.70;85.60;;;;;;3570376;40;20057;-62
2021/05/16 03:03:46;;;;;;;2.38;1.80;;;10.70;85.40;;;;;;3573944;40;20310;-62
2021/05/16 03:06:12;;;;;;;3.50;1.20;;;10.70;85.60;;;;;;3574635;40;20446;-62
2021/05/16 03:08:39;;;;;;;1.40;1.30;;;10.70;85.50;;;;;;3571177;40;20041;-62
2021/05/16 03:11:06;;;;;;;3.42;1.30;;;10.70;85.50;;;;;;3569777;40;20040;-62
2021/05/16 03:13:32;;;;;;;1.90;1.30;;;10.70;85.70;;;;;;3571529;40;20076;-62
2021/05/16 03:16:02;;;;;;;2.15;1.60;;;10.70;85.70;;;;;;3573139;40;20037;-62
2021/05/16 03:18:29;;;;;;;2.35;1.60;;;10.80;85.70;;;;;;3573474;40;20065;-62
2021/05/16 03:20:55;;;;;;;2.50;1.70;;;10.90;85.10;;;;;;3574458;40;20115;-62
2021/05/16 03:23:21;;;;;;;2.25;1.38;;;11.00;85.10;;;;;;3579462;40;20142;-62
2021/05/16 03:25:49;;;;;;;1.65;1.55;;;11.00;85.10;;;;;;3578548;40;20414;-62
2021/05/16 03:28:15;;;;;;;1.73;1.40;;;11.00;85.00;;;;;;3573526;40;20032;-62
2021/05/16 03:30:41;;;;;;;2.15;1.38;;;11.10;85.10;;;;;;3574863;40;20051;-62
2021/05/16 03:33:07;;;;;;;4.45;1.23;;;11.20;84.90;;;;;;3574522;40;20032;-62
2021/05/16 03:35:33;;;;;;;1.67;1.27;;;11.20;84.60;;;;;;3579389;40;20171;-62
2021/05/16 03:37:59;;;;;;;1.55;1.45;;;11.30;84.30;;;;;;3578824;40;20040;-62
2021/05/16 03:40:25;;;;;;;1.35;1.23;;;11.30;84.10;;;;;;3574525;40;20750;-62
2021/05/16 03:42:51;;;;;;;1.75;1.65;;;11.30;83.90;;;;;;3574346;40;20036;-62
2021/05/16 03:45:17;;;;;;;1.85;1.58;;;11.40;84.10;;;;;;3574169;40;20169;-62
2021/05/16 03:47:43;;;;;;;2.15;1.50;;;11.50;83.90;;;;;;3577004;40;20076;-63
2021/05/16 03:50:11;;;;;;;4.05;1.63;;;11.60;83.80;;;;;;3568185;40;20048;-62
2021/05/16 03:52:39;;;;;;;1.98;1.50;;;11.60;83.20;;;;;;3572578;40;20045;-63
2021/05/16 03:55:06;;;;;;;2.97;1.65;;;11.70;82.80;;;;;;3573950;40;20136;-62
2021/05/16 03:57:31;;;;;;;1.80;1.70;;;11.70;83.10;;;;;;3575727;40;20025;-63
2021/05/16 03:59:57;;;;;;;3.22;1.58;;;11.70;83.40;;;;;;3577803;40;20044;-62
2021/05/16 04:02:22;;;;;;;1.98;1.77;;;11.70;83.60;;;;;;3570788;40;20710;-62
2021/05/16 04:04:48;;;;;;;1.58;1.48;;;11.70;83.60;;;;;;3572382;40;20106;-62
2021/05/16 04:07:14;;;;;;;1.77;1.60;;;11.80;83.40;;;;;;3574387;40;20072;-62
2021/05/16 04:09:40;;;;;;;2.03;1.55;;;11.90;83.10;;;;;;3574969;40;20425;-63
2021/05/16 04:12:06;;;;;;;2.78;1.60;;;12.00;82.80;;;;;;3575283;40;20370;-62
2021/05/16 04:14:31;;;;;;;1.38;1.23;;;12.20;82.30;;;;;;3570734;40;20032;-62
2021/05/16 04:16:57;;;;;;;1.88;1.58;;;12.30;82.30;;;;;;3572449;40;20047;-62
2021/05/16 04:19:23;;;;;;;2.17;1.70;;;12.30;81.90;;;;;;3574187;40;20794;-62
2021/05/16 04:21:49;;;;;;;2.33;1.40;;;12.30;81.70;;;;;;3575999;40;20028;-62
2021/05/16 04:24:15;;;;;;;1.50;1.25;;;12.30;81.30;;;;;;3572293;40;20069;-62
2021/05/16 04:26:41;;;;;;;1.38;1.27;;;12.40;81.20;;;;;;3572041;40;20055;-63
2021/05/16 04:29:06;;;;;;;2.03;1.40;;;12.50;81.40;;;;;;3578182;40;20083;-62
2021/05/16 04:31:32;;;;;;;3.47;2.10;;;12.50;81.00;;;;;;3576133;40;20109;-62
2021/05/16 04:33:58;;;;;;;4.45;2.75;;;12.50;80.40;;;;;;3573668;40;20681;-63
2021/05/16 04:36:24;;;;;;;3.83;2.10;;;12.60;80.20;;;;;;3572107;40;20025;-63
2021/05/16 04:38:52;;;;;;;3.22;2.35;;;12.70;80.40;;;;;;3577061;40;20020;-62
2021/05/16 04:41:18;;;;;;;2.88;2.30;;;12.70;80.60;;;;;;3569130;40;20520;-62
2021/05/16 04:43:44;;;;;;;2.83;1.98;;;12.80;79.70;;;;;;3573351;40;20102;-62
2021/05/16 04:46:10;;;;;;;1.90;1.70;;;12.80;79.10;;;;;;3572418;40;20044;-62
2021/05/16 04:48:35;;;;;;;3.53;1.80;;;12.80;78.90;;;;;;3574953;40;20033;-62
2021/05/16 04:51:01;;;;;;;2.28;1.73;;;12.80;78.80;;;;;;3577861;40;20037;-62
2021/05/16 04:53:32;;;;;;;2.97;1.27;;;12.80;78.40;;;;;;3578130;40;20078;-62
2021/05/16 04:55:59;;;;;;;1.65;1.55;;;12.80;78.80;;;;;;3574857;40;20114;-63
2021/05/16 04:58:25;;;;;;;1.98;1.40;;;12.80;79.10;;;;;;3574230;40;20033;-62
2021/05/16 05:00:50;;;;;;;2.33;1.65;;;12.90;79.30;;;;;;3572324;40;20417;-62
2021/05/16 05:03:16;;;;;;;1.52;1.40;;;12.90;79.10;;;;;;3572102;40;20049;-62
2021/05/16 05:05:43;;;;;;;1.58;1.48;;;13.10;79.00;;;;;;3578361;40;20040;-62
2021/05/16 05:08:10;;;;;;;2.00;1.60;;;13.20;78.50;;;;;;3576460;40;20037;-62
2021/05/16 05:10:37;;;;;;;1.63;1.50;;;13.40;77.70;;;;;;3575353;40;20126;-62
2021/05/16 05:13:02;;;;;;;2.80;1.58;;;13.50;77.60;;;;;;3574469;40;20121;-62
2021/05/16 05:15:28;;;;;;;1.55;1.40;;;13.70;77.40;;;;;;3578697;40;20373;-62
2021/05/16 05:17:54;;;;;;;1.50;1.40;;;14.00;76.10;;;;;;3579671;40;20024;-62
2021/05/16 05:20:20;;;;;;;2.13;1.25;;;14.40;73.60;;;;;;3577922;40;20087;-67
2021/05/16 05:22:46;;;;;;;1.55;1.30;;;14.90;71.90;;;;;;3574244;40;20084;-67
2021/05/16 05:25:12;;;;;;;1.83;1.55;;;15.10;71.20;;;;;;3574347;40;20037;-67
2021/05/16 05:27:38;;;;;;;2.65;1.65;;;15.20;70.70;;;;;;3571193;40;20053;-67
2021/05/16 05:30:05;;;;;;;1.27;1.02;;;15.30;70.70;;;;;;3569992;40;20087;-66
2021/05/16 05:32:31;;;;;;;1.58;1.48;;;15.30;69.50;;;;;;3573533;40;20040;-67
2021/05/16 05:34:56;;;;;;;1.42;1.30;;;15.20;69.70;;;;;;3573809;40;20029;-66
2021/05/16 05:37:22;;;;;;;1.45;1.13;;;15.10;70.00;;;;;;3572578;40;20630;-67
2021/05/16 05:39:48;;;;;;;2.15;1.27;;;15.00;70.80;;;;;;3571910;40;20110;-68
2021/05/16 05:42:13;;;;;;;1.63;1.27;;;15.00;71.60;;;;;;3576973;40;20040;-67
2021/05/16 05:44:40;;;;;;;1.45;1.27;;;14.90;70.70;;;;;;3573070;40;20076;-67
2021/05/16 05:47:06;;;;;;;2.05;1.58;;;15.00;70.30;;;;;;3574932;40;20037;-66
2021/05/16 05:49:32;;;;;;;3.45;1.30;;;14.80;70.60;;;;;;3576428;40;20037;-66
2021/05/16 05:52:00;;;;;;;1.20;0.90;;;14.70;71.00;;;;;;3577948;40;20021;-66
2021/05/16 05:54:25;;;;;;;1.73;1.30;;;14.70;70.80;;;;;;3579294;40;20029;-66
2021/05/16 05:56:51;;;;;;;1.90;1.30;;;14.60;71.50;;;;;;3571688;40;20029;-66
2021/05/16 05:59:17;;;;;;;2.15;1.33;;;14.60;72.00;;;;;;3574571;40;20589;-67
2021/05/16 06:01:42;;;;;;;2.42;1.30;;;14.70;72.00;;;;;;3576169;40;20405;-67
2021/05/16 06:04:08;;;;;;;14.00;2.00;;;14.70;72.30;;;;;;3575359;40;20024;-67
2021/05/16 06:06:34;;;;;;;2.08;1.40;;;14.90;72.40;;;;;;3573328;40;20060;-66
2021/05/16 06:09:00;;;;;;;2.45;1.02;;;15.10;72.00;;;;;;3574500;40;20033;-67
2021/05/16 06:11:25;;;;;;;1.73;1.10;;;15.30;71.10;;;;;;3575306;40;20541;-67
2021/05/16 06:13:51;;;;;;;1.23;1.05;;;15.40;70.50;;;;;;3575388;40;20036;-67
2021/05/16 06:16:17;;;;;;;1.20;1.10;;;15.60;69.70;;;;;;3574670;40;20033;-67
2021/05/16 06:18:42;;;;;;;2.50;1.00;;;15.60;69.80;;;;;;3572556;40;20041;-67
2021/05/16 06:21:08;;;;;;;1.00;0.88;;;15.50;70.20;;;;;;3573377;40;20037;-67
2021/05/16 06:23:46;;;;;;;1.80;0.98;;;15.50;70.10;;;;;;3575590;40;20056;-67
2021/05/16 06:26:12;;;;;;;1.60;1.15;;;15.40;70.20;;;;;;3575432;40;20099;-66
2021/05/16 06:28:37;;;;;;;4.90;2.88;;;15.30;70.50;;;;;;3576967;40;20037;-66
2021/05/16 06:31:03;;;;;;;1.10;1.00;;;15.20;70.80;;;;;;3572663;40;20036;-66
2021/05/16 06:33:28;;;;;;;2.30;1.33;;;15.10;71.70;;;;;;3573350;40;20033;-66
2021/05/16 06:35:54;;;;;;;1.65;0.90;;;15.10;71.30;;;;;;3572191;40;20033;-67
2021/05/16 06:38:20;;;;;;;0.73;0.73;;;15.00;71.30;;;;;;3575705;40;20029;-69
2021/05/16 06:40:46;;;;;;;0.85;0.75;;;15.00;72.10;;;;;;3577186;40;20307;-67
2021/05/16 06:43:13;;;;;;;1.30;1.20;;;14.90;71.60;;;;;;3579536;40;20041;-67
2021/05/16 06:45:39;;;;;;;1.55;1.00;;;14.90;72.40;;;;;;3578194;40;20041;-66
2021/05/16 06:48:05;;;;;;;0.90;0.77;;;14.80;73.20;;;;;;3575586;40;20125;-67
2021/05/16 06:50:31;;;;;;;1.95;1.30;;;14.70;73.40;;;;;;3573402;40;20430;-66
2021/05/16 06:52:56;;;;;;;3.22;1.10;;;14.60;73.70;;;;;;3575161;40;20072;-66
2021/05/16 06:55:22;;;;;;;2.05;1.15;;;14.50;74.90;;;;;;3573495;40;20013;-66
2021/05/16 06:57:47;;;;;;;2.03;0.80;;;14.50;74.90;;;;;;3570508;40;20045;-66
2021/05/16 07:00:14;;;;;;;0.95;0.70;;;14.70;75.70;;;;;;3571003;40;20757;-67
2021/05/16 07:02:39;;;;;;;1.00;0.90;;;14.80;75.40;;;;;;3574562;40;20032;-67
2021/05/16 07:05:06;;;;;;;1.48;0.95;;;14.90;74.50;;;;;;3574006;40;20029;-67
2021/05/16 07:07:32;;;;;;;1.75;0.82;;;15.00;75.10;;;;;;3572588;40;20814;-67
2021/05/16 07:09:57;;;;;;;1.08;0.95;;;15.10;74.80;;;;;;3574379;40;20042;-66
2021/05/16 07:12:23;;;;;;;4.68;0.93;;;15.20;75.20;;;;;;3576411;40;20106;-67
2021/05/16 07:14:49;;;;;;;1.67;0.90;;;15.20;75.30;;;;;;3573610;40;20037;-67
2021/05/16 07:17:14;;;;;;;1.00;0.70;;;15.20;75.60;;;;;;3576136;40;20036;-67
2021/05/16 07:19:40;;;;;;;1.83;0.82;;;15.30;76.10;;;;;;3573573;40;20601;-67
2021/05/16 07:22:06;;;;;;;2.15;0.90;;;15.40;75.00;;;;;;3575792;40;20044;-67
2021/05/16 07:24:32;;;;;;;2.08;0.80;;;15.60;75.30;;;;;;3577502;40;20458;-67
2021/05/16 07:26:57;;;;;;;3.25;0.85;;;15.80;74.90;;;;;;3575441;40;20025;-67
2021/05/16 07:29:23;;;;;;;2.45;1.35;;;16.00;72.10;;;;;;3574927;40;20778;-67
2021/05/16 07:31:50;;;;;;;1.30;0.80;;;15.90;72.00;;;;;;3573967;40;20421;-67
2021/05/16 07:34:16;;;;;;;1.55;1.08;;;15.90;72.60;;;;;;3572488;40;20143;-67
2021/05/16 07:36:42;;;;;;;1.10;0.80;;;15.90;72.30;;;;;;3570538;40;20045;-67
2021/05/16 07:39:07;;;;;;;1.60;1.25;;;16.00;72.00;;;;;;3573343;40;20029;-67
2021/05/16 07:41:33;;;;;;;3.97;2.00;;;16.20;73.70;;;;;;3573718;40;20032;-67
2021/05/16 07:43:59;;;;;;;1.30;1.00;;;16.50;71.70;;;;;;3572288;40;20033;-67
2021/05/16 07:46:24;;;;;;;3.58;1.15;;;16.50;69.30;;;;;;3574849;40;20604;-68
2021/05/16 07:48:50;;;;;;;1.65;1.30;;;16.20;70.40;;;;;;3574397;40;20350;-67
2021/05/16 07:51:16;;;;;;;5.50;3.40;;;16.00;72.00;;;;;;3564239;40;20043;-67
2021/05/16 07:53:42;;;;;;;6.63;3.58;;;15.80;72.00;;;;;;3573055;40;20036;-67
2021/05/16 07:56:10;;;;;;;4.78;2.03;;;15.60;72.90;;;;;;3571753;40;20043;-67
2021/05/16 07:58:36;;;;;;;2.90;1.73;;;15.40;73.40;;;;;;3577262;40;20069;-66
2021/05/16 08:01:01;;;;;;;1.92;1.33;;;15.30;74.70;;;;;;3577517;40;20067;-67
2021/05/16 08:03:27;;;;;;;1.58;1.30;;;15.20;75.10;;;;;;3572164;40;20036;-67
2021/05/16 08:05:53;;;;;;;1.33;1.23;;;15.10;75.10;;;;;;3573676;40;20044;-67
2021/05/16 08:08:19;;;;;;;17.75;10.15;;;15.20;75.60;;;;;;3574049;40;20052;-67
2021/05/16 08:10:45;;;;;;;21.55;13.63;;;15.30;75.70;;;;;;3574233;40;20084;-67
2021/05/16 08:13:12;;;;;;;9.32;4.85;;;15.50;75.60;;;;;;3571390;40;20033;-67
2021/05/16 08:15:38;;;;;;;13.48;9.07;;;15.70;75.20;;;;;;3575383;40;20067;-67
2021/05/16 08:18:04;;;;;;;8.32;4.60;;;15.90;75.20;;;;;;3573837;40;20446;-67
2021/05/16 08:20:31;;;;;;;1.80;1.30;;;15.90;73.80;;;;;;3574030;40;20090;-68
2021/05/16 08:22:57;;;;;;;1.90;1.20;;;15.90;73.20;;;;;;3577393;40;20417;-67
2021/05/16 08:25:23;;;;;;;6.03;4.55;;;15.90;73.00;;;;;;3574953;40;20033;-67
2021/05/16 08:27:51;;;;;;;4.85;3.35;;;16.00;72.40;;;;;;3572582;40;20032;-67
2021/05/16 08:30:17;;;;;;;2.80;1.00;;;16.20;73.10;;;;;;3572798;40;20028;-67
2021/05/16 08:32:44;;;;;;;4.13;1.23;;;16.50;71.10;;;;;;3568699;40;20056;-67
2021/05/16 08:35:11;;;;;;;2.50;1.58;;;16.80;70.20;;;;;;3575281;40;20029;-66
2021/05/16 08:37:37;;;;;;;3.13;1.75;;;17.00;68.00;;;;;;3572281;40;20084;-66
2021/05/16 08:40:05;;;;;;;2.88;1.13;;;17.10;67.60;;;;;;3572178;40;20088;-66
2021/05/16 08:42:31;;;;;;;6.35;1.83;;;17.30;66.80;;;;;;3573864;40;20041;-65
2021/05/16 08:44:57;;;;;;;3.95;1.30;;;17.40;66.30;;;;;;3572215;40;20489;-67
2021/05/16 08:47:23;;;;;;;3.17;1.35;;;17.50;65.50;;;;;;3576838;40;20091;-67
2021/05/16 08:49:50;;;;;;;12.30;5.72;;;17.70;61.60;;;;;;3570406;40;20025;-62
2021/05/16 08:52:16;;;;;;;5.40;2.05;;;17.80;63.30;;;;;;3571232;40;20033;-62
2021/05/16 08:54:42;;;;;;;7.18;2.58;;;18.00;61.10;;;;;;3573531;40;20027;-61
2021/05/16 08:57:08;;;;;;;5.40;2.42;;;18.20;61.40;;;;;;3573835;40;20335;-63
2021/05/16 08:59:33;;;;;;;9.52;3.35;;;18.40;60.90;;;;;;3572359;40;20020;-62
2021/05/16 09:02:00;;;;;;;6.82;1.83;;;18.60;59.50;;;;;;3570789;40;20022;-63
2021/05/16 09:04:40;;;;;;;3.78;1.00;;;18.80;59.80;;;;;;3576887;40;20033;-62
2021/05/16 09:07:06;;;;;;;7.07;1.38;;;19.00;57.30;;;;;;3575276;40;20044;-62
2021/05/16 09:09:34;;;;;;;4.20;1.20;;;19.10;57.40;;;;;;3571987;40;20044;-63
2021/05/16 09:12:09;;;;;;;5.72;1.20;;;19.20;56.30;;;;;;3570277;40;20029;-62
2021/05/16 09:14:57;;;;;;;9.40;2.30;;;19.30;56.90;;;;;;3567901;40;20123;-62
2021/05/16 09:17:31;;;;;;;3.45;1.33;;;19.50;56.20;;;;;;3570712;40;20045;-62
2021/05/16 09:20:00;;;;;;;4.60;1.15;;;19.60;55.80;;;;;;3573908;40;20040;-62
2021/05/16 09:22:46;;;;;;;4.82;1.27;;;19.60;57.60;;;;;;3576402;40;20086;-63
2021/05/16 09:25:19;;;;;;;;;;;19.40;55.90;;;;;;3572890;40;20127;-63
2021/05/16 09:27:48;;;;;;;4.47;1.00;;;19.10;57.70;;;;;;3571228;40;20010;-63
2021/05/16 09:30:20;;;;;;;5.53;1.63;;;18.90;58.20;;;;;;3571675;40;20664;-62
2021/05/16 09:32:50;;;;;;;5.10;1.88;;;18.70;58.10;;;;;;3574758;40;20032;-63
2021/05/16 09:35:16;;;;;;;6.38;2.50;;;18.60;59.60;;;;;;3575425;40;20035;-63
2021/05/16 09:38:14;;;;;;;7.28;2.30;;;18.30;59.80;;;;;;3572604;40;20025;-62
2021/05/16 09:40:52;;;;;;;5.78;1.60;;;18.20;60.30;;;;;;3567956;40;20717;-62
2021/05/16 09:43:22;;;;;;;4.35;2.03;;;18.00;61.60;;;;;;3570796;40;20303;-68
2021/05/16 09:46:06;;;;;;;4.88;1.60;;;17.90;61.30;;;;;;3575213;40;20029;-63
2021/05/16 09:48:41;;;;;;;3.53;1.88;;;17.80;61.70;;;;;;3574141;40;20085;-63
2021/05/16 09:51:25;;;;;;;5.18;2.03;;;17.90;61.70;;;;;;3577782;40;20048;-63
2021/05/16 09:53:50;;;;;;;3.78;1.65;;;18.20;61.90;;;;;;3576898;40;20045;-63
2021/05/16 09:56:37;;;;;;;3.67;1.30;;;18.80;61.40;;;;;;3577388;40;20051;-63
2021/05/16 09:59:07;;;;;;;5.78;1.27;;;19.50;58.80;;;;;;3575720;40;20769;-63
2021/05/16 10:01:33;;;;;;;3.35;1.20;;;19.80;54.00;;;;;;3571597;40;20033;-63
2021/05/16 10:04:00;;;;;;;4.50;1.23;;;19.70;53.90;;;;;;3586190;40;20024;-63
2021/05/16 10:06:28;;;;;;;5.53;1.58;;;19.50;53.60;;;;;;3578621;40;20031;-63
2021/05/16 10:08:54;;;;;;;5.85;1.30;;;19.70;53.40;;;;;;3576274;40;20037;-62
2021/05/16 10:11:22;;;;;;;4.10;1.48;;;19.90;54.20;;;;;;3575563;40;20036;-63
2021/05/16 10:13:53;;;;;;;5.13;1.05;;;19.90;52.10;;;;;;3573180;40;20118;-64
2021/05/16 10:16:20;;;;;;;5.35;1.55;;;19.70;52.40;;;;;;3570224;40;20029;-63
2021/05/16 10:18:48;;;;;;;5.22;1.15;;;19.50;53.70;;;;;;3571257;40;20033;-63
2021/05/16 10:21:15;;;;;;;4.72;1.08;;;19.50;51.40;;;;;;3572534;40;20029;-63
2021/05/16 10:23:41;;;;;;;7.88;4.03;;;19.70;52.00;;;;;;3574760;40;20056;-63
2021/05/16 10:26:27;;;;;;;2.55;1.13;;;20.00;51.00;;;;;;3573504;40;20033;-63
2021/05/16 10:29:02;;;;;;;2.15;0.98;;;20.20;51.50;;;;;;3570861;40;20025;-63
2021/05/16 10:31:54;;;;;;;2.83;1.13;;;20.20;50.90;;;;;;3574379;40;20039;-63
2021/05/16 10:34:32;;;;;;;1.98;0.80;;;20.10;51.70;;;;;;3576641;40;20120;-63
2021/05/16 10:37:03;;;;;;;4.03;1.05;;;19.90;50.10;;;;;;3574592;40;20705;-63
2021/05/16 10:39:43;;;;;;;4.28;1.13;;;20.00;51.70;;;;;;3571791;40;20037;-63
2021/05/16 10:42:19;;;;;;;3.33;1.08;;;19.90;50.00;;;;;;3570961;40;20568;-63
2021/05/16 10:44:58;;;;;;;;;;;20.10;54.20;;;;;;3577189;40;20099;-63
2021/05/16 10:47:47;;;;;;;2.20;0.75;;;20.30;51.00;;;;;;3574165;40;19940;-63
2021/05/16 10:50:25;;;;;;;3.35;1.08;;;20.30;49.10;;;;;;3574847;40;20036;-63
2021/05/16 10:52:59;;;;;;;4.55;1.10;;;20.30;50.10;;;;;;3571922;40;20040;-63
2021/05/16 10:55:35;;;;;;;2.05;0.65;;;20.30;49.30;;;;;;3578122;40;20036;-63
2021/05/16 10:58:02;;;;;;;5.80;0.90;;;20.50;49.20;;;;;;3578068;40;20033;-63
2021/05/16 11:00:30;;;;;;;3.28;0.80;;;20.70;46.90;;;;;;3574696;40;20418;-62
2021/05/16 11:03:01;;;;;;;2.83;0.80;;;20.80;46.60;;;;;;3574012;40;20693;-63
2021/05/16 11:05:47;;;;;;;3.63;0.60;;;20.50;48.50;;;;;;3577064;40;20755;-63
2021/05/16 11:08:16;;;;;;;4.13;1.00;;;20.10;48.80;;;;;;3570221;40;20200;-63
2021/05/16 11:10:47;;;;;;;3.50;0.90;;;19.60;51.80;;;;;;3567648;40;20039;-63
2021/05/16 11:13:17;;;;;;;4.03;1.02;;;19.20;55.40;;;;;;3573479;40;20051;-63
2021/05/16 11:15:48;;;;;;;3.25;0.90;;;18.90;54.80;;;;;;3572584;40;20413;-63
2021/05/16 11:18:18;;;;;;;2.28;0.60;;;18.40;58.20;;;;;;3576827;40;20101;-62
2021/05/16 11:20:50;;;;;;;1.40;0.60;;;18.00;62.10;;;;;;3568385;40;20049;-63
2021/05/16 11:23:27;;;;;;;2.88;1.13;;;17.60;64.40;;;;;;3575062;40;20436;-62
2021/05/16 11:26:06;;;;;;;4.50;0.80;;;17.50;67.80;;;;;;3569589;40;20718;-63
2021/05/16 11:28:34;;;;;;;3.65;1.05;;;17.50;68.10;;;;;;3570903;40;20048;-63
2021/05/16 11:31:06;;;;;;;1.75;1.05;;;17.70;69.30;;;;;;3577672;40;20055;-63
2021/05/16 11:33:35;;;;;;;3.17;0.95;;;17.80;67.10;;;;;;3568717;40;20044;-62
2021/05/16 11:36:07;;;;;;;3.28;0.93;;;18.00;66.90;;;;;;3571790;40;20044;-63
2021/05/16 11:38:35;;;;;;;3.83;1.00;;;18.00;63.40;;;;;;3571014;40;20041;-62
2021/05/16 11:41:00;;;;;;;1.13;0.70;;;18.10;63.20;;;;;;3571405;40;20053;-63
2021/05/16 11:43:27;;;;;;;1.25;0.60;;;18.30;62.50;;;;;;3571521;40;20033;-62
2021/05/16 11:45:53;;;;;;;3.53;0.63;;;18.50;64.60;;;;;;3575972;40;20044;-63
2021/05/16 11:48:24;;;;;;;2.10;0.70;;;18.50;60.10;;;;;;3572517;40;20028;-63
2021/05/16 11:50:50;;;;;;;2.35;0.90;;;18.40;58.50;;;;;;3573776;40;20091;-64
2021/05/16 11:53:22;;;;;;;2.13;0.82;;;18.20;60.60;;;;;;3577897;40;20040;-63
2021/05/16 11:55:49;;;;;;;3.63;0.93;;;18.00;61.40;;;;;;3576230;40;20040;-63
2021/05/16 11:58:15;;;;;;;1.48;0.90;;;17.80;63.40;;;;;;3579256;40;20079;-63
2021/05/16 12:00:40;;;;;;;2.33;1.05;;;17.60;67.00;;;;;;3576312;40;20389;-63
2021/05/16 12:03:11;;;;;;;2.28;0.90;;;17.50;69.00;;;;;;3576946;40;20042;-63
2021/05/16 12:05:37;;;;;;;3.83;1.33;;;17.40;70.60;;;;;;3574496;40;20025;-63
2021/05/16 12:08:17;;;;;;;3.42;1.73;;;17.50;71.90;;;;;;3572156;40;20048;-63
2021/05/16 12:10:44;;;;;;;2.45;0.88;;;17.60;69.90;;;;;;3575600;40;20036;-63
2021/05/16 12:13:23;;;;;;;3.03;0.88;;;17.60;69.50;;;;;;3572949;40;20111;-63
2021/05/16 12:15:50;;;;;;;2.70;1.00;;;17.70;70.90;;;;;;3573957;40;20041;-64
2021/05/16 12:18:24;;;;;;;1.05;0.70;;;17.90;68.80;;;;;;3573715;40;20717;-64
2021/05/16 12:21:03;;;;;;;3.92;0.73;;;18.10;64.90;;;;;;3572287;40;20031;-64
2021/05/16 12:23:29;;;;;;;6.18;2.67;;;18.30;61.00;;;;;;3577667;40;20198;-64
2021/05/16 12:25:55;;;;;;;4.72;1.02;;;18.50;60.50;;;;;;3576670;40;20033;-63
2021/05/16 12:28:21;;;;;;;1.27;0.73;;;18.40;61.70;;;;;;3573731;40;20449;-63
2021/05/16 12:30:47;;;;;;;2.50;0.82;;;18.40;62.50;;;;;;3574460;40;20045;-63
2021/05/16 12:33:15;;;;;;;2.13;0.70;;;18.30;64.30;;;;;;3577962;40;20341;-63
2021/05/16 12:35:43;;;;;;;4.18;0.50;;;18.30;59.60;;;;;;3570933;40;20059;-63
2021/05/16 12:38:13;;;;;;;2.15;0.70;;;18.30;61.70;;;;;;3577827;40;20817;-64
2021/05/16 12:40:39;;;;;;;1.85;0.75;;;18.40;60.30;;;;;;3575599;40;20110;-63
2021/05/16 12:43:07;;;;;;;1.98;0.70;;;18.50;58.60;;;;;;3573943;40;20060;-63
2021/05/16 12:45:34;;;;;;;2.45;0.80;;;18.50;57.30;;;;;;3571328;40;20398;-69
2021/05/16 12:48:07;;;;;;;2.30;0.70;;;18.60;55.00;;;;;;3577935;40;20674;-63
2021/05/16 12:50:42;;;;;;;4.20;0.77;;;18.80;57.70;;;;;;3578798;40;20025;-63
2021/05/16 12:53:31;;;;;;;2.22;0.75;;;18.80;54.80;;;;;;3574398;40;20456;-63